Girvin, Texas
Current Conditions -  °F | °C
As of 4:53 PM on Monday 22 Dec 2014 (Local Time) from KFST Reporting Station
Clear Clear  
Wind Chill: 71°   Ceiling: Unl
Heat Index: 71°   Visibility: 10mi
Dew Point: 29°   Wind: 7mph
Humidity: 21%   Direction: 310°NW
Pressure: 29.64"   Gusts: NA
Location:  31.06°N, 102.39°W
Report Text: KFST 222253Z AUTO 31006KT 10SM CLR 22/M02 A2964 RMK AO2 SLP000 T02171017
Loading
Personal Weather Stations






























Interactive Weather Map New forecast layout! Learn more

10-Day Weather Forecast

Advertisements
Track Severe Weather on mobile